Time;durP1;ratioP1;P1;durP2;ratioP2;P2;SDS_P1;SDS_P2;PMS_P1;PMS_P2;Temp;Humidity;BMP_temperature;BMP_pressure;BME280_temperature;BME280_humidity;BME280_pressure;Samples;Min_cycle;Max_cycle;Signal;HPM_P1;HPM_P2
2022/03/22 00:00:21;;;;;;;11.13;9.87;;;;;;;5.65;38.88;100973.97;5093167;28;20281;-72
2022/03/22 00:02:48;;;;;;;12.90;9.13;;;;;;;5.69;39.16;100983.28;5093533;28;20255;-71
2022/03/22 00:05:15;;;;;;;12.83;9.83;;;;;;;5.83;39.16;100976.88;5092699;28;20284;-71
2022/03/22 00:07:42;;;;;;;10.10;9.10;;;;;;;6.06;38.51;100972.28;5092651;28;20575;-71
2022/03/22 00:10:10;;;;;;;12.13;9.83;;;;;;;6.15;38.34;100971.50;5092625;28;20244;-71
2022/03/22 00:12:37;;;;;;;10.47;9.47;;;;;;;6.19;38.05;100972.91;5092611;28;20219;-71
2022/03/22 00:15:05;;;;;;;13.03;10.23;;;;;;;6.28;37.51;100972.94;5093682;28;20194;-71
2022/03/22 00:17:33;;;;;;;14.33;9.30;;;;;;;6.42;37.31;100969.13;5092506;28;20558;-71
2022/03/22 00:20:00;;;;;;;10.47;9.40;;;;;;;6.43;36.66;100969.00;5093223;28;20191;-72
2022/03/22 00:22:26;;;;;;;11.70;9.10;;;;;;;6.43;36.78;100958.44;5092479;28;20278;-71
2022/03/22 00:24:53;;;;;;;14.43;10.17;;;;;;;6.50;36.71;100966.66;5092459;28;20744;-71
2022/03/22 00:27:20;;;;;;;10.90;8.33;;;;;;;6.49;36.80;100954.44;5092684;28;20275;-71
2022/03/22 00:29:48;;;;;;;9.40;8.20;;;;;;;6.56;36.54;100966.94;5092339;28;20251;-72
2022/03/22 00:32:14;;;;;;;9.47;8.47;;;;;;;6.71;36.50;100964.75;5092623;28;20193;-71
2022/03/22 00:34:45;;;;;;;8.53;7.87;;;;;;;6.88;36.26;100964.94;5092607;28;20191;-71
2022/03/22 00:37:14;;;;;;;10.33;8.60;;;;;;;6.92;36.40;100963.69;5092271;28;20560;-72
2022/03/22 00:39:41;;;;;;;10.23;9.07;;;;;;;6.90;36.01;100957.69;5092575;28;20191;-72
2022/03/22 00:42:08;;;;;;;9.57;7.83;;;;;;;6.92;35.80;100957.56;5092512;28;20279;-71
2022/03/22 00:44:37;;;;;;;9.37;8.40;;;;;;;6.92;35.58;100952.28;5092150;28;20198;-71
2022/03/22 00:47:04;;;;;;;9.20;8.40;;;;;;;6.83;35.46;100953.13;5093469;28;20187;-71
2022/03/22 00:49:33;;;;;;;11.53;8.77;;;;;;;6.78;35.51;100950.06;5092064;28;20195;-71
2022/03/22 00:52:04;;;;;;;8.63;7.83;;;;;;;6.71;35.31;100954.19;5092534;28;20221;-72
2022/03/22 00:54:31;;;;;;;10.57;7.73;;;;;;;6.69;35.15;100945.59;5092626;28;20187;-72
2022/03/22 00:56:58;;;;;;;8.07;7.33;;;;;;;6.72;35.37;100943.50;5092066;28;20743;-72
2022/03/22 01:02:09;;;;;;;8.57;7.77;;;;;;;6.69;34.96;100945.59;5091995;28;20211;-72
2022/03/22 01:04:36;;;;;;;10.97;7.53;;;;;;;6.68;35.11;100943.91;5092271;28;20197;-72
2022/03/22 01:07:05;;;;;;;8.23;7.57;;;;;;;6.70;35.18;100934.06;5091968;28;20657;-72
2022/03/22 01:09:32;;;;;;;8.40;7.57;;;;;;;6.72;35.43;100932.09;5092168;28;20655;-71
2022/03/22 01:11:58;;;;;;;9.10;8.03;;;;;;;6.70;35.17;100926.13;5091870;28;20198;-72
2022/03/22 01:14:27;;;;;;;8.00;7.20;;;;;;;6.72;35.05;100927.66;5092173;28;20739;-72
2022/03/22 01:16:55;;;;;;;9.13;8.10;;;;;;;6.71;35.18;100922.50;5092146;28;20195;-72
2022/03/22 01:19:22;;;;;;;9.60;7.40;;;;;;;6.70;35.15;100926.13;5092135;28;20198;-72
2022/03/22 01:21:49;;;;;;;12.43;8.13;;;;;;;6.73;35.16;100907.38;5091714;28;20694;-72
2022/03/22 01:24:17;;;;;;;10.07;7.00;;;;;;;6.75;35.47;100914.19;5091747;28;20195;-73
2022/03/22 01:26:44;;;;;;;9.00;8.10;;;;;;;6.76;35.64;100909.72;5091767;28;20248;-73
2022/03/22 01:29:11;;;;;;;10.00;7.80;;;;;;;6.77;35.35;100909.59;5091979;28;20198;-73
2022/03/22 01:31:38;;;;;;;8.87;7.97;;;;;;;6.70;35.48;100899.72;5092003;28;20195;-72
2022/03/22 01:34:05;;;;;;;8.67;7.77;;;;;;;6.75;35.65;100902.78;5091676;28;20251;-72
2022/03/22 01:36:31;;;;;;;9.23;8.37;;;;;;;6.74;35.44;100901.94;5091871;28;20198;-72
2022/03/22 01:38:58;;;;;;;10.30;8.13;;;;;;;6.66;35.95;100904.44;5091592;28;20661;-72
2022/03/22 01:41:26;;;;;;;8.53;7.73;;;;;;;6.71;35.62;100890.84;5091537;28;20218;-72
2022/03/22 01:43:53;;;;;;;8.50;7.90;;;;;;;6.76;35.65;100889.44;5091556;28;20617;-72
2022/03/22 01:46:24;;;;;;;8.53;7.37;;;;;;;6.75;35.89;100892.22;5091795;28;20187;-72
2022/03/22 01:48:51;;;;;;;9.80;8.83;;;;;;;6.77;35.61;100892.94;5091814;28;20614;-72
2022/03/22 01:51:20;;;;;;;8.80;7.90;;;;;;;6.83;35.58;100887.09;5091439;28;20736;-72
2022/03/22 01:53:48;;;;;;;8.67;7.77;;;;;;;6.71;35.25;100896.13;5093805;28;20191;-71
2022/03/22 01:56:15;;;;;;;9.00;8.10;;;;;;;6.78;35.32;100891.97;5095163;28;20193;-72
2022/03/22 01:58:43;;;;;;;8.90;7.90;;;;;;;6.78;35.38;100878.75;5095467;28;20195;-71
2022/03/22 02:06:40;;;;;;;9.33;8.20;;;;;;;6.82;34.85;100880.97;5096398;28;20229;-71
2022/03/22 02:09:07;;;;;;;10.63;8.23;;;;;;;6.89;34.32;100873.31;5095539;28;20325;-71
2022/03/22 02:11:34;;;;;;;10.70;8.03;;;;;;;6.92;34.49;100873.06;5094943;28;20689;-71
2022/03/22 02:14:02;;;;;;;10.53;8.50;;;;;;;6.92;34.80;100880.97;5094870;28;20199;-72
2022/03/22 02:16:29;;;;;;;12.23;8.47;;;;;;;6.90;34.96;100875.00;5094794;28;20261;-71
2022/03/22 02:18:56;;;;;;;8.57;7.53;;;;;;;6.89;35.42;100863.59;5094711;28;20663;-72
2022/03/22 02:21:25;;;;;;;9.40;8.47;;;;;;;6.92;35.03;100873.91;5094913;28;20270;-72
2022/03/22 02:23:55;;;;;;;13.00;8.03;;;;;;;6.88;35.20;100866.38;5095184;28;20579;-72
2022/03/22 02:26:23;;;;;;;8.93;8.23;;;;;;;6.94;34.73;100868.47;5095814;28;20191;-72
2022/03/22 02:28:53;;;;;;;10.93;8.73;;;;;;;6.98;35.19;100860.13;5094585;28;20195;-72
2022/03/22 02:31:20;;;;;;;11.10;7.90;;;;;;;6.96;34.55;100853.31;5094464;28;20700;-72
2022/03/22 02:33:47;;;;;;;9.63;8.63;;;;;;;6.87;35.16;100864.72;5094754;28;20256;-72
2022/03/22 02:36:13;;;;;;;12.53;9.20;;;;;;;6.93;35.43;100861.50;5094484;28;20191;-72
2022/03/22 02:38:40;;;;;;;9.10;8.23;;;;;;;6.98;35.43;100868.03;5094705;28;20195;-72
2022/03/22 02:41:14;;;;;;;10.30;9.07;;;;;;;7.04;35.40;100858.72;5095407;28;20276;-72
2022/03/22 02:43:41;;;;;;;15.97;8.40;;;;;;;7.00;35.27;100859.97;5094910;28;20182;-72
2022/03/22 02:46:08;;;;;;;12.77;9.40;;;;;;;6.98;35.56;100857.47;5094582;28;20252;-72
2022/03/22 02:48:35;;;;;;;11.33;8.97;;;;;;;6.97;35.47;100857.59;5095084;28;20198;-73
2022/03/22 02:51:02;;;;;;;9.73;8.80;;;;;;;6.99;35.29;100860.97;5094446;28;20669;-73
2022/03/22 02:53:28;;;;;;;10.87;8.90;;;;;;;6.99;35.17;100860.97;5094469;28;20248;-72
2022/03/22 02:55:55;;;;;;;9.20;8.40;;;;;;;7.03;34.79;100846.50;5093991;28;20194;-73
2022/03/22 02:58:23;;;;;;;12.57;9.63;;;;;;;7.02;35.45;100843.00;5094034;28;20198;-73
2022/03/22 03:00:50;;;;;;;11.60;9.33;;;;;;;7.05;35.24;100841.91;5093855;28;20263;-72
2022/03/22 03:03:22;;;;;;;10.37;9.13;;;;;;;7.06;35.79;100843.59;5093896;28;20731;-72
2022/03/22 03:05:49;;;;;;;11.37;8.90;;;;;;;7.02;35.50;100850.13;5093248;28;20236;-72
2022/03/22 03:08:16;;;;;;;10.67;9.50;;;;;;;7.04;35.45;100850.81;5094145;28;20192;-72
2022/03/22 03:10:42;;;;;;;12.23;9.63;;;;;;;7.04;34.91;100848.16;5093809;28;20199;-72
2022/03/22 03:13:09;;;;;;;12.10;9.13;;;;;;;7.06;35.03;100859.44;5094861;28;20587;-72
2022/03/22 03:15:37;;;;;;;11.43;9.43;;;;;;;7.06;35.66;100848.88;5093665;28;20755;-72
2022/03/22 03:18:04;;;;;;;10.20;9.27;;;;;;;7.14;35.42;100851.66;5094652;28;20199;-72
2022/03/22 03:20:31;;;;;;;9.97;8.97;;;;;;;7.16;35.35;100849.69;5094338;28;20241;-72
2022/03/22 03:22:58;;;;;;;12.23;9.33;;;;;;;7.13;35.12;100849.94;5093704;28;20222;-72
2022/03/22 03:25:25;;;;;;;11.77;9.63;;;;;;;7.12;35.48;100843.84;5093443;28;20248;-72
2022/03/22 03:27:52;;;;;;;13.60;9.60;;;;;;;7.16;35.50;100836.47;5094590;28;20190;-70
2022/03/22 03:30:19;;;;;;;12.33;9.70;;;;;;;7.12;34.99;100838.56;5093625;28;20274;-71
2022/03/22 03:32:47;;;;;;;10.40;9.40;;;;;;;7.08;35.25;100837.19;5093646;28;20194;-72
2022/03/22 03:35:14;;;;;;;14.77;10.20;;;;;;;7.09;35.43;100838.00;5093847;28;20191;-72
2022/03/22 03:37:43;;;;;;;13.90;9.77;;;;;;;7.04;35.45;100837.59;5093278;28;20260;-73
2022/03/22 03:40:11;;;;;;;18.83;10.20;;;;;;;7.03;35.21;100834.13;5094035;28;20210;-73
2022/03/22 03:42:42;;;;;;;12.73;9.47;;;;;;;6.98;35.56;100824.97;5093350;28;20276;-72
2022/03/22 03:47:57;;;;;;;16.70;9.57;;;;;;;6.96;35.22;100827.75;5093797;28;20610;-72
2022/03/22 03:50:23;;;;;;;13.30;10.17;;;;;;;7.02;35.36;100821.06;5093779;28;20190;-71
2022/03/22 03:52:50;;;;;;;16.33;10.00;;;;;;;7.00;35.22;100817.72;5093806;28;20271;-71
2022/03/22 03:55:17;;;;;;;11.83;9.83;;;;;;;6.96;35.33;100811.03;5092884;28;20199;-72
2022/03/22 03:57:44;;;;;;;18.77;10.50;;;;;;;7.02;35.47;100826.34;5092791;28;20657;-72
2022/03/22 04:00:12;;;;;;;11.23;9.90;;;;;;;7.08;35.81;100820.50;5093112;28;20675;-71
2022/03/22 04:02:40;;;;;;;13.77;10.77;;;;;;;7.04;35.89;100819.94;5092962;28;20291;-72
2022/03/22 04:05:09;;;;;;;12.17;9.57;;;;;;;6.98;35.97;100824.97;5093478;28;20230;-72
2022/03/22 04:07:36;;;;;;;18.60;10.80;;;;;;;7.07;35.82;100837.31;5093540;28;20248;-72
2022/03/22 04:10:03;;;;;;;14.23;10.13;;;;;;;7.05;36.13;100832.19;5093241;28;20193;-71
2022/03/22 04:12:31;;;;;;;16.37;11.00;;;;;;;7.10;35.44;100824.66;5092932;28;20254;-71
2022/03/22 04:14:57;;;;;;;11.97;10.53;;;;;;;7.06;35.06;100823.25;5092851;28;20195;-71
2022/03/22 04:17:24;;;;;;;14.77;10.30;;;;;;;7.11;35.52;100828.94;5092182;28;20194;-72
2022/03/22 04:19:51;;;;;;;13.60;9.77;;;;;;;7.13;35.46;100818.25;5093626;28;20187;-72
2022/03/22 04:22:19;;;;;;;11.33;10.23;;;;;;;7.09;35.46;100827.44;5092639;28;20234;-72
2022/03/22 04:24:46;;;;;;;11.60;10.03;;;;;;;7.08;35.73;100831.06;5092435;28;20191;-72
2022/03/22 04:32:43;;;;;;;14.63;10.60;;;;;;;7.09;35.84;100816.88;5092724;28;20726;-72
2022/03/22 04:35:11;;;;;;;12.67;10.23;;;;;;;7.10;36.27;100818.56;5093015;28;20191;-72
2022/03/22 04:37:39;;;;;;;15.23;9.93;;;;;;;7.04;36.04;100819.09;5092524;28;20659;-72
2022/03/22 04:40:07;;;;;;;18.17;9.90;;;;;;;7.07;36.22;100818.81;5092436;28;20190;-72
2022/03/22 04:42:34;;;;;;;12.83;9.77;;;;;;;7.10;36.04;100829.13;5092403;28;20222;-72
2022/03/22 04:45:01;;;;;;;10.87;9.77;;;;;;;7.11;36.38;100825.50;5092048;28;20194;-72
2022/03/22 04:47:29;;;;;;;15.77;10.80;;;;;;;7.14;36.38;100819.94;5092922;28;20187;-73
2022/03/22 04:49:55;;;;;;;12.17;10.80;;;;;;;7.20;36.34;100825.50;5092024;28;20713;-72
2022/03/22 04:57:53;;;;;;;15.27;9.80;;;;;;;7.19;36.00;100812.41;5092567;28;20228;-72
2022/03/22 05:00:21;;;;;;;15.37;11.47;;;;;;;7.18;35.61;100816.03;5092103;28;20191;-72
2022/03/22 05:02:48;;;;;;;14.23;11.20;;;;;;;7.23;35.69;100821.72;5091740;28;20219;-72
2022/03/22 05:05:15;;;;;;;12.60;10.23;;;;;;;7.22;35.51;100823.53;5092237;28;20227;-71
2022/03/22 05:08:03;;;;;;;14.33;10.77;;;;;;;7.27;35.87;100817.81;5091622;28;20225;-71
2022/03/22 05:10:32;;;;;;;12.60;10.07;;;;;;;7.34;35.33;100810.97;5091655;28;20634;-72
2022/03/22 05:12:59;;;;;;;16.60;10.40;;;;;;;7.37;36.04;100821.25;5092200;28;20611;-72
2022/03/22 05:15:25;;;;;;;12.77;11.00;;;;;;;7.37;35.41;100816.81;5091995;28;20191;-71
2022/03/22 05:17:52;;;;;;;15.13;10.33;;;;;;;7.46;35.27;100804.53;5091593;28;20245;-71
2022/03/22 05:20:19;;;;;;;21.47;10.67;;;;;;;7.75;34.74;100810.53;5091990;28;20190;-71
2022/03/22 05:22:46;;;;;;;15.67;10.30;;;;;;;8.14;34.16;100806.72;5091876;28;20280;-71
2022/03/22 05:25:12;;;;;;;13.57;10.40;;;;;;;8.22;34.43;100804.22;5091600;28;20252;-71
2022/03/22 05:27:41;;;;;;;16.87;10.90;;;;;;;8.22;34.08;100801.56;5091851;28;20744;-73
2022/03/22 05:30:09;;;;;;;12.93;10.53;;;;;;;7.92;34.11;100791.28;5096149;28;20198;-71
2022/03/22 05:32:36;;;;;;;14.10;10.20;;;;;;;7.74;34.48;100787.72;5095809;28;20248;-72
2022/03/22 05:35:03;;;;;;;24.70;10.37;;;;;;;7.74;34.54;100793.00;5095634;28;20247;-72
2022/03/22 05:37:30;;;;;;;14.37;10.20;;;;;;;7.82;34.72;100793.13;5095282;28;20732;-71
2022/03/22 05:39:56;;;;;;;20.33;11.37;;;;;;;7.84;34.42;100788.53;5095647;28;20195;-71
2022/03/22 05:42:23;;;;;;;14.03;10.10;;;;;;;7.68;34.46;100796.25;5095171;28;20275;-73
2022/03/22 05:44:52;;;;;;;15.43;10.07;;;;;;;7.73;35.17;100786.06;5095582;28;20276;-72
2022/03/22 05:47:19;;;;;;;15.87;9.83;;;;;;;8.11;34.77;100799.09;5096050;28;20229;-72
2022/03/22 05:49:45;;;;;;;14.87;10.43;;;;;;;8.65;33.22;100783.09;5095870;28;20195;-71
2022/03/22 05:52:12;;;;;;;18.93;11.80;;;;;;;9.28;32.16;100789.91;5095682;28;20248;-71
2022/03/22 05:54:39;;;;;;;18.30;10.83;;;;;;;9.58;31.35;100784.09;5095068;28;20252;-71
2022/03/22 05:57:06;;;;;;;10.83;9.60;;;;;;;10.04;31.17;100780.97;5095063;28;20577;-71
2022/03/22 05:59:32;;;;;;;18.80;10.63;;;;;;;10.38;29.93;100782.59;5094981;28;20237;-70
2022/03/22 06:02:00;;;;;;;21.27;10.67;;;;;;;10.66;30.24;100797.25;5094823;28;20305;-70
2022/03/22 06:04:27;;;;;;;38.10;11.53;;;;;;;10.69;29.53;100790.78;5094566;28;20668;-70
2022/03/22 06:06:54;;;;;;;22.83;11.10;;;;;;;11.03;29.31;100794.13;5095198;28;20610;-70
2022/03/22 06:09:20;;;;;;;20.27;10.40;;;;;;;11.29;28.75;100789.41;5095040;28;20619;-69
2022/03/22 06:11:47;;;;;;;15.53;10.27;;;;;;;11.46;28.61;100784.88;5095370;28;20188;-69
2022/03/22 06:14:14;;;;;;;19.30;10.87;;;;;;;11.56;28.61;100789.00;5094781;28;20195;-69
2022/03/22 06:16:41;;;;;;;23.10;13.60;;;;;;;11.68;28.26;100790.34;5094817;28;20193;-69
2022/03/22 06:19:09;;;;;;;19.63;10.57;;;;;;;11.70;28.09;100799.00;5094696;28;20196;-70
2022/03/22 06:21:35;;;;;;;21.30;12.83;;;;;;;11.85;28.76;100797.28;5094667;28;20201;-66
2022/03/22 06:24:02;;;;;;;26.40;16.80;;;;;;;12.21;28.76;100793.09;5094564;28;20247;-68
2022/03/22 06:26:29;;;;;;;19.70;12.20;;;;;;;12.35;28.32;100794.19;5095034;28;20195;-66
2022/03/22 06:28:56;;;;;;;31.77;13.47;;;;;;;12.48;27.95;100795.28;5094797;28;20569;-67
2022/03/22 06:31:22;;;;;;;20.13;13.50;;;;;;;12.53;27.78;100787.56;5094822;28;20194;-66
2022/03/22 06:33:49;;;;;;;18.30;12.70;;;;;;;12.56;27.78;100781.06;5082014;28;20231;-66
2022/03/22 06:36:17;;;;;;;18.20;10.73;;;;;;;12.60;27.45;100777.88;5079458;28;20670;-66
2022/03/22 06:38:44;;;;;;;16.57;10.37;;;;;;;12.56;27.91;100781.91;5094351;28;20192;-65
2022/03/22 06:41:11;;;;;;;15.00;10.63;;;;;;;12.49;28.05;100783.59;5083182;28;20249;-67
2022/03/22 06:43:37;;;;;;;14.33;9.90;;;;;;;12.69;27.70;100775.97;5074101;28;20295;-68
2022/03/22 06:46:04;;;;;;;14.00;9.83;;;;;;;12.84;27.24;100769.69;5074512;28;20196;-67
2022/03/22 06:48:31;;;;;;;11.83;9.80;;;;;;;12.81;27.48;100763.88;5074893;28;20194;-65
2022/03/22 06:50:57;;;;;;;16.70;10.00;;;;;;;12.99;27.01;100773.25;5093971;28;20197;-66
2022/03/22 06:53:25;;;;;;;12.87;10.33;;;;;;;13.19;27.31;100761.03;5094423;28;20276;-62
2022/03/22 06:55:52;;;;;;;16.30;9.67;;;;;;;13.15;27.58;100767.75;5093920;28;20659;-63
2022/03/22 06:58:21;;;;;;;14.43;10.27;;;;;;;13.20;27.53;100767.22;5093706;28;20701;-67
2022/03/22 07:00:48;;;;;;;13.17;10.13;;;;;;;13.43;28.13;100765.34;5094068;28;20555;-66
2022/03/22 07:03:15;;;;;;;22.07;11.93;;;;;;;13.67;27.24;100767.69;5093838;28;20225;-66
2022/03/22 07:05:45;;;;;;;15.90;10.33;;;;;;;13.92;28.06;100753.88;5091823;28;20275;-67
2022/03/22 07:08:12;;;;;;;14.50;9.23;;;;;;;13.90;26.95;100757.75;5072439;28;20215;-66
2022/03/22 07:10:40;;;;;;;14.53;9.33;;;;;;;13.85;26.64;100760.97;5073179;28;20188;-64
2022/03/22 07:13:11;;;;;;;14.53;9.37;;;;;;;13.86;26.55;100751.97;5073088;28;20200;-68
2022/03/22 07:15:39;;;;;;;17.90;8.97;;;;;;;14.18;25.86;100751.50;5073665;28;20204;-63
2022/03/22 07:18:08;;;;;;;19.67;10.23;;;;;;;13.95;26.48;100758.84;5073501;28;20200;-64
2022/03/22 07:20:36;;;;;;;14.67;8.77;;;;;;;14.32;26.11;100756.03;5073142;28;20309;-62
2022/03/22 07:23:03;;;;;;;13.50;10.00;;;;;;;14.61;25.83;100753.22;5073060;28;20227;-63
2022/03/22 07:25:33;;;;;;;22.00;9.03;;;;;;;14.93;27.78;100752.72;5074242;28;20192;-63
2022/03/22 07:28:01;;;;;;;10.87;8.13;;;;;;;15.15;25.06;100761.53;5072930;28;20195;-62
2022/03/22 07:30:27;;;;;;;16.17;8.87;;;;;;;15.40;25.18;100754.75;5085300;28;20192;-63
2022/03/22 07:32:55;;;;;;;13.40;9.50;;;;;;;15.52;27.46;100751.31;5086865;28;20212;-64
2022/03/22 07:35:22;;;;;;;16.90;9.33;;;;;;;15.76;24.46;100758.00;5093583;28;20191;-63
2022/03/22 07:37:49;;;;;;;15.00;9.67;;;;;;;15.53;24.74;100755.63;5093131;28;20659;-63
2022/03/22 07:40:16;;;;;;;26.40;11.23;;;;;;;15.96;25.95;100744.72;5087543;28;20194;-64
2022/03/22 07:42:43;;;;;;;17.23;11.03;;;;;;;16.58;25.35;100743.47;5077798;28;20580;-65
2022/03/22 07:45:12;;;;;;;15.13;10.50;;;;;;;16.72;26.33;100728.22;5093230;28;20197;-65
2022/03/22 07:47:41;;;;;;;15.40;9.77;;;;;;;16.38;24.77;100733.72;5093216;28;20191;-67
2022/03/22 07:53:05;;;;;;;20.27;10.07;;;;;;;17.18;24.82;100737.06;5092865;28;20183;-66
2022/03/22 07:55:34;;;;;;;14.93;9.27;;;;;;;17.42;26.38;100729.25;5093222;28;20575;-65
2022/03/22 07:58:02;;;;;;;19.93;10.00;;;;;;;17.46;25.84;100718.88;5092682;28;20196;-64
2022/03/22 08:00:31;;;;;;;15.00;9.13;;;;;;;18.08;26.33;100717.22;5093047;28;20214;-66
2022/03/22 08:02:59;;;;;;;10.30;9.27;;;;;;;18.44;24.02;100727.38;5092670;28;20337;-67
2022/03/22 08:05:26;;;;;;;10.50;9.40;;;;;;;18.67;22.52;100723.06;5092521;28;20229;-67
2022/03/22 08:07:53;;;;;;;11.83;9.23;;;;;;;18.15;22.79;100714.47;5092519;28;20199;-66
2022/03/22 08:10:20;;;;;;;17.33;9.13;;;;;;;18.14;23.70;100719.06;5082058;28;20688;-66
2022/03/22 08:12:47;;;;;;;11.33;9.23;;;;;;;18.20;23.24;100722.72;5072531;28;20196;-65
2022/03/22 08:15:14;;;;;;;9.13;8.23;;;;;;;18.12;23.12;100725.66;5072334;28;20255;-66
2022/03/22 08:17:43;;;;;;;10.10;8.87;;;;;;;17.92;23.34;100708.81;5084677;28;20195;-66
2022/03/22 08:20:11;;;;;;;14.80;8.87;;;;;;;18.05;24.11;100711.44;5092268;28;20225;-66
2022/03/22 08:22:49;;;;;;;14.23;10.17;;;;;;;18.27;23.31;100715.44;5092648;28;20216;-65
2022/03/22 08:25:17;;;;;;;16.63;9.67;;;;;;;18.26;23.42;100713.81;5091284;28;20280;-65
2022/03/22 08:27:45;;;;;;;10.90;8.57;;;;;;;18.32;23.00;100699.47;5092439;28;20246;-66
2022/03/22 08:30:13;;;;;;;29.77;9.97;;;;;;;18.40;25.45;100686.63;5092533;28;20655;-67
2022/03/22 08:32:43;;;;;;;10.83;7.67;;;;;;;18.78;23.13;100687.38;5093008;28;20233;-66
2022/03/22 08:35:10;;;;;;;12.10;8.43;;;;;;;19.02;24.00;100685.69;5092034;28;20582;-66
2022/03/22 08:37:38;;;;;;;17.23;8.50;;;;;;;18.67;23.35;100673.81;5092459;28;20192;-66
2022/03/22 08:40:06;;;;;;;9.83;8.30;;;;;;;18.55;23.47;100684.47;5092163;28;20203;-66
2022/03/22 08:42:32;;;;;;;8.57;7.67;;;;;;;18.63;22.78;100676.09;5092206;28;20250;-64
2022/03/22 08:44:59;;;;;;;19.20;8.67;;;;;;;18.58;23.22;100667.84;5090994;28;20195;-63
2022/03/22 08:47:27;;;;;;;18.17;8.40;;;;;;;18.58;23.18;100667.84;5091975;28;20203;-63
2022/03/22 08:49:55;;;;;;;10.93;8.30;;;;;;;18.42;23.25;100670.28;5092185;28;20194;-64
2022/03/22 08:52:22;;;;;;;10.10;7.33;;;;;;;18.45;26.09;100646.44;5091945;28;20191;-63
2022/03/22 08:54:51;;;;;;;8.50;7.63;;;;;;;19.08;23.34;100649.81;5091956;28;20220;-65
2022/03/22 08:57:18;;;;;;;11.03;9.07;;;;;;;18.80;23.60;100662.91;5091501;28;20205;-66
2022/03/22 08:59:44;;;;;;;8.63;7.73;;;;;;;18.96;23.20;100654.28;5092205;28;20245;-67
2022/03/22 09:02:11;;;;;;;13.27;7.50;;;;;;;19.71;23.58;100651.16;5091793;28;20695;-67
2022/03/22 09:07:23;;;;;;;26.97;8.67;;;;;;;20.35;21.95;100641.34;5091379;28;20191;-67
2022/03/22 09:09:50;;;;;;;10.90;7.23;;;;;;;20.10;22.04;100635.28;5084258;28;20237;-66
2022/03/22 09:12:17;;;;;;;12.23;7.63;;;;;;;19.44;23.57;100631.00;5083796;28;20226;-62
2022/03/22 09:14:43;;;;;;;11.73;7.80;;;;;;;19.54;22.73;100631.28;5085805;28;20199;-64
2022/03/22 09:17:10;;;;;;;10.60;9.50;;;;;;;19.19;23.25;100630.22;5086020;28;20243;-63
2022/03/22 09:19:37;;;;;;;9.57;7.73;;;;;;;19.38;23.94;100615.72;5087282;28;20230;-64
2022/03/22 09:22:05;;;;;;;11.23;7.00;;;;;;;19.48;23.71;100618.72;5095780;28;20254;-64
2022/03/22 09:24:34;;;;;;;20.97;8.47;;;;;;;18.87;23.60;100612.53;5083284;28;20314;-64
2022/03/22 09:27:01;;;;;;;12.70;8.03;;;;;;;19.15;23.32;100605.59;5075723;28;20658;-64
2022/03/22 09:29:28;;;;;;;10.30;7.73;;;;;;;19.13;23.70;100601.47;5075563;28;20253;-63
2022/03/22 09:31:55;;;;;;;16.67;8.07;;;;;;;19.52;24.32;100595.66;5075429;28;20253;-63
2022/03/22 09:34:23;;;;;;;7.30;6.70;;;;;;;19.92;23.69;100597.56;5075121;28;20205;-68
2022/03/22 09:36:49;;;;;;;6.87;6.30;;;;;;;20.16;23.24;100609.28;5076340;28;20274;-73
2022/03/22 09:39:16;;;;;;;22.53;7.47;;;;;;;20.50;22.41;100600.44;5075086;28;20194;-74
2022/03/22 09:41:46;;;;;;;7.63;7.03;;;;;;;20.80;22.25;100598.44;5093097;28;20202;-71
2022/03/22 09:44:16;;;;;;;8.90;6.97;;;;;;;20.70;22.88;100590.09;5084376;28;20703;-70
2022/03/22 09:46:46;;;;;;;6.83;5.90;;;;;;;20.92;21.87;100587.66;5074999;28;20192;-71
2022/03/22 09:49:13;;;;;;;11.70;6.30;;;;;;;21.04;22.25;100592.00;5077837;28;20203;-72
2022/03/22 09:51:47;;;;;;;16.27;7.47;;;;;;;21.04;22.36;100583.06;5077771;28;20192;-72
2022/03/22 09:54:16;;;;;;;7.10;5.90;;;;;;;20.91;24.30;100580.59;5075589;28;20221;-70
2022/03/22 09:56:46;;;;;;;6.00;5.40;;;;;;;21.15;23.16;100583.03;5077908;28;20248;-69
2022/03/22 09:59:14;;;;;;;6.63;6.00;;;;;;;21.23;22.21;100581.84;5095670;28;20260;-70
2022/03/22 10:01:41;;;;;;;8.30;5.60;;;;;;;20.93;22.97;100579.31;5095361;28;20192;-67
2022/03/22 10:04:12;;;;;;;11.43;6.17;;;;;;;21.07;23.15;100567.19;5083193;28;20224;-67
2022/03/22 10:06:41;;;;;;;23.40;10.70;;;;;;;21.48;25.75;100558.03;5084524;28;20227;-68
2022/03/22 10:09:07;;;;;;;18.50;7.90;;;;;;;21.50;24.23;100550.50;5077666;28;20269;-68
2022/03/22 10:11:36;;;;;;;9.87;6.13;;;;;;;21.10;22.97;100561.31;5086543;28;20203;-68
2022/03/22 10:14:04;;;;;;;9.57;5.63;;;;;;;20.69;26.19;100561.44;5094727;28;20290;-67
2022/03/22 10:16:31;;;;;;;6.20;4.50;;;;;;;20.17;25.06;100551.56;5091694;28;20184;-67
2022/03/22 10:18:58;;;;;;;5.77;5.27;;;;;;;19.82;24.31;100554.16;5074863;28;20253;-67
2022/03/22 10:21:25;;;;;;;5.17;4.87;;;;;;;19.85;24.70;100552.88;5074948;28;20192;-70
2022/03/22 10:23:53;;;;;;;4.83;4.43;;;;;;;20.15;25.61;100550.97;5074665;28;20216;-69
2022/03/22 10:26:21;;;;;;;11.57;4.93;;;;;;;20.58;24.83;100543.38;5074447;28;20196;-70
2022/03/22 10:28:53;;;;;;;8.30;4.40;;;;;;;21.04;24.90;100532.56;5079364;28;20196;-72
2022/03/22 10:31:33;;;;;;;5.47;3.63;;;;;;;20.98;23.26;100544.31;5074642;28;20242;-72
2022/03/22 10:33:59;;;;;;;5.40;3.37;;;;;;;20.63;23.90;100530.81;5074648;28;20295;-67
2022/03/22 10:36:26;;;;;;;4.63;3.77;;;;;;;20.29;23.65;100528.09;5074133;28;20192;-67
2022/03/22 10:38:54;;;;;;;3.50;3.30;;;;;;;20.23;23.80;100523.66;5073260;28;20200;-66
2022/03/22 10:41:25;;;;;;;3.73;3.53;;;;;;;20.23;23.97;100524.50;5088928;28;20274;-67
2022/03/22 10:44:02;;;;;;;5.70;3.33;;;;;;;19.70;24.64;100507.47;5094553;28;20207;-67
2022/03/22 10:46:30;;;;;;;7.27;3.20;;;;;;;20.07;24.13;100510.81;5094696;28;20187;-66
2022/03/22 10:49:03;;;;;;;29.50;5.77;;;;;;;20.28;24.05;100515.66;5074109;28;20196;-67
2022/03/22 10:51:34;;;;;;;7.00;3.23;;;;;;;20.29;23.25;100501.13;5073795;28;20184;-67
2022/03/22 10:54:01;;;;;;;4.60;3.33;;;;;;;20.23;23.25;100504.75;5074030;28;20253;-68
2022/03/22 10:56:27;;;;;;;3.63;3.33;;;;;;;20.20;23.21;100510.63;5073706;28;20253;-66
2022/03/22 10:58:55;;;;;;;5.93;3.60;;;;;;;20.02;23.35;100505.31;5090084;28;20235;-67
2022/03/22 11:01:23;;;;;;;3.67;3.43;;;;;;;20.04;23.12;100519.38;5093824;28;20249;-67
2022/03/22 11:03:54;;;;;;;3.20;3.00;;;;;;;20.06;23.05;100504.59;5094430;28;20280;-68
2022/03/22 11:06:23;;;;;;;3.03;2.83;;;;;;;20.25;22.82;100494.53;5094129;28;20215;-67
2022/03/22 11:08:50;;;;;;;3.63;3.33;;;;;;;20.41;22.28;100504.63;5093961;28;20227;-68
2022/03/22 11:11:17;;;;;;;6.87;3.00;;;;;;;19.92;21.85;100507.72;5079105;28;20192;-68
2022/03/22 11:13:44;;;;;;;6.97;3.10;;;;;;;19.67;22.34;100490.91;5073871;28;20247;-66
2022/03/22 11:16:11;;;;;;;5.63;3.50;;;;;;;19.19;23.11;100492.84;5081265;28;20199;-67
2022/03/22 11:18:38;;;;;;;5.13;3.70;;;;;;;19.24;22.86;100495.69;5076541;28;20199;-67
2022/03/22 11:21:06;;;;;;;3.17;2.97;;;;;;;19.18;23.20;100492.00;5083142;28;20629;-67
2022/03/22 11:23:35;;;;;;;4.93;3.40;;;;;;;19.30;23.09;100481.28;5083033;28;20277;-67
2022/03/22 11:26:08;;;;;;;6.33;3.70;;;;;;;19.26;23.13;100498.97;5081076;28;20200;-69
2022/03/22 11:28:35;;;;;;;8.63;3.80;;;;;;;19.13;22.41;100507.19;5090317;28;20206;-68
2022/03/22 11:31:03;;;;;;;8.03;3.33;;;;;;;18.89;22.83;100500.88;5093117;28;20198;-67
2022/03/22 11:36:17;;;;;;;4.60;3.90;;;;;;;18.21;23.88;100476.94;5073220;28;20199;-67
2022/03/22 11:38:46;;;;;;;4.90;3.43;;;;;;;18.36;24.46;100467.50;5073553;28;20186;-67
2022/03/22 11:44:09;;;;;;;7.87;3.90;;;;;;;17.78;24.95;100471.50;5092798;28;20226;-67
2022/03/22 11:46:35;;;;;;;4.10;3.30;;;;;;;17.81;24.24;100468.38;5092604;28;20579;-68
2022/03/22 11:49:13;;;;;;;7.33;5.27;;;;;;;17.79;23.18;100462.41;5093183;28;20198;-67
2022/03/22 11:51:48;;;;;;;9.60;5.77;;;;;;;17.41;24.13;100458.13;5092923;28;20183;-70
2022/03/22 11:54:15;;;;;;;7.57;4.37;;;;;;;17.30;24.33;100458.78;5090444;28;20240;-67
2022/03/22 11:56:47;;;;;;;5.67;4.23;;;;;;;17.23;23.93;100440.03;5093085;28;20198;-67